createdAt,value
2022-08-01T00:02:27.940Z,2.88
2022-08-01T00:07:29.884Z,2.70
2022-08-01T00:12:31.901Z,2.42
2022-08-01T00:17:34.282Z,2.80
2022-08-01T00:22:36.522Z,2.95
2022-08-01T00:27:38.504Z,2.53
2022-08-01T00:32:40.374Z,2.80
2022-08-01T00:37:42.197Z,2.50
2022-08-01T00:42:47.128Z,2.85
2022-08-01T00:47:49.014Z,2.95
2022-08-01T00:52:58.806Z,2.80
2022-08-01T00:58:03.038Z,2.60
2022-08-01T01:03:07.270Z,2.70
2022-08-01T01:08:17.956Z,3.10
2022-08-01T01:13:29.580Z,3.20
2022-08-01T01:18:36.730Z,2.95
2022-08-01T01:24:05.962Z,3.03
2022-08-01T01:29:29.381Z,2.58
2022-08-01T01:34:36.603Z,2.78
2022-08-01T01:39:41.528Z,2.57
2022-08-01T01:44:49.303Z,3.17
2022-08-01T01:49:53.605Z,3.00
2022-08-01T01:54:56.878Z,2.60
2022-08-01T02:00:00.370Z,3.15
2022-08-01T02:05:03.025Z,3.10
2022-08-01T02:10:07.352Z,2.83
2022-08-01T02:15:10.367Z,3.20
2022-08-01T02:20:13.034Z,3.25
2022-08-01T02:25:32.498Z,3.58
2022-08-01T02:30:37.844Z,2.88
2022-08-01T02:36:30.080Z,3.17
2022-08-01T02:41:17.665Z,2.97
2022-08-01T02:46:25.250Z,3.13
2022-08-01T02:51:27.688Z,2.90
2022-08-01T02:56:38.249Z,3.13
2022-08-01T03:01:42.045Z,2.85
2022-08-01T03:06:45.003Z,3.30
2022-08-01T03:11:49.363Z,3.40
2022-08-01T03:16:52.605Z,3.10
2022-08-01T03:21:56.666Z,3.15
2022-08-01T03:26:59.692Z,2.97
2022-08-01T03:32:03.193Z,3.22
2022-08-01T03:37:12.121Z,3.30
2022-08-01T03:42:19.840Z,3.15
2022-08-01T03:47:26.212Z,3.03
2022-08-01T03:52:30.499Z,3.28
2022-08-01T03:57:36.067Z,3.00
2022-08-01T04:02:39.553Z,3.00
2022-08-01T04:07:43.930Z,3.35
2022-08-01T04:12:45.739Z,3.60
2022-08-01T04:17:48.311Z,3.33
2022-08-01T04:22:50.339Z,3.20
2022-08-01T04:27:54.096Z,3.17
2022-08-01T04:32:58.472Z,3.30
2022-08-01T04:38:02.636Z,3.55
2022-08-01T04:43:04.677Z,3.70
2022-08-01T04:48:09.512Z,3.63
2022-08-01T04:53:19.339Z,3.78
2022-08-01T04:58:21.144Z,3.38
2022-08-01T05:03:22.928Z,3.45
2022-08-01T05:08:24.858Z,4.10
2022-08-01T05:13:26.765Z,3.78
2022-08-01T05:18:28.871Z,3.47
2022-08-01T05:23:42.131Z,3.80
2022-08-01T05:28:45.248Z,3.53
2022-08-01T05:33:47.044Z,3.78
2022-08-01T05:38:48.844Z,3.58
2022-08-01T05:43:50.647Z,3.90
2022-08-01T05:48:52.525Z,3.67
2022-08-01T05:53:55.847Z,3.60
2022-08-01T05:58:57.625Z,3.45
2022-08-01T06:03:59.405Z,3.40
2022-08-01T06:09:01.333Z,3.20
2022-08-01T06:14:03.295Z,3.22
2022-08-01T06:19:05.298Z,3.25
2022-08-01T06:24:07.370Z,3.17
2022-08-01T06:29:09.959Z,3.28
2022-08-01T06:34:12.012Z,3.50
2022-08-01T06:39:13.798Z,3.20
2022-08-01T06:44:15.576Z,3.15
2022-08-01T06:49:17.374Z,3.13
2022-08-01T06:54:19.211Z,2.92
2022-08-01T06:59:21.025Z,2.65
2022-08-01T07:04:22.871Z,3.10
2022-08-01T07:09:24.804Z,3.20
2022-08-01T07:14:26.746Z,2.90
2022-08-01T07:19:28.879Z,3.40
2022-08-01T07:24:31.264Z,2.88
2022-08-01T07:29:33.067Z,2.80
2022-08-01T07:34:34.885Z,2.60
2022-08-01T07:39:36.658Z,2.20
2022-08-01T07:44:38.931Z,2.45
2022-08-01T07:49:41.273Z,2.40
2022-08-01T07:54:43.155Z,2.15
2022-08-01T07:59:44.971Z,2.38
2022-08-01T08:04:49.081Z,3.75
2022-08-01T08:09:51.524Z,2.20
2022-08-01T08:14:53.347Z,2.15
2022-08-01T08:19:55.186Z,2.22
2022-08-01T08:24:57.040Z,2.08
2022-08-01T08:30:03.419Z,2.13
2022-08-01T08:35:06.453Z,1.92
2022-08-01T08:40:09.536Z,2.35
2022-08-01T08:45:12.482Z,2.17
2022-08-01T08:50:14.776Z,1.95
2022-08-01T08:55:18.020Z,2.47
2022-08-01T09:00:21.920Z,2.45
2022-08-01T09:05:38.787Z,3.85
2022-08-01T09:10:41.313Z,3.10
2022-08-01T09:15:46.403Z,2.60
2022-08-01T09:20:48.269Z,2.50
2022-08-01T09:25:59.198Z,2.30
2022-08-01T09:31:08.237Z,2.15
2022-08-01T09:36:13.263Z,1.80
2022-08-01T09:41:17.061Z,2.58
2022-08-01T09:46:21.456Z,2.08
2022-08-01T09:51:58.435Z,2.00
2022-08-01T09:57:13.228Z,1.90
2022-08-01T10:02:27.526Z,1.83
2022-08-01T10:07:43.036Z,1.70
2022-08-01T10:12:49.137Z,1.65
2022-08-01T10:17:57.213Z,1.98
2022-08-01T10:23:06.311Z,1.70
2022-08-01T10:28:24.209Z,1.88
2022-08-01T10:33:51.448Z,1.92
2022-08-01T10:38:48.771Z,2.10
2022-08-01T10:43:52.551Z,1.98
2022-08-01T10:49:08.160Z,1.80
2022-08-01T10:54:11.864Z,1.90
2022-08-01T10:59:29.121Z,1.90
2022-08-01T11:04:57.034Z,1.52
2022-08-01T11:10:37.687Z,1.90
2022-08-01T11:15:50.130Z,1.60
2022-08-01T11:21:58.761Z,2.33
2022-08-01T11:26:28.818Z,1.60
2022-08-01T11:31:37.702Z,1.38
2022-08-01T11:36:58.212Z,1.50
2022-08-01T11:42:21.077Z,1.50
2022-08-01T11:47:50.195Z,1.52
2022-08-01T11:53:05.332Z,1.42
2022-08-01T11:58:08.894Z,1.52
2022-08-01T12:03:34.354Z,1.80
2022-08-01T12:08:37.558Z,1.70
2022-08-01T12:13:42.489Z,1.48
2022-08-01T12:18:45.074Z,1.42
2022-08-01T12:23:47.208Z,1.90
2022-08-01T12:28:49.047Z,1.70
2022-08-01T12:33:50.872Z,1.40
2022-08-01T12:38:57.665Z,1.70
2022-08-01T12:43:59.729Z,1.33
2022-08-01T12:49:01.649Z,1.48
2022-08-01T12:54:05.456Z,1.30
2022-08-01T12:59:29.919Z,1.48
2022-08-01T13:04:31.773Z,1.67
2022-08-01T13:09:33.648Z,2.08
2022-08-01T13:14:35.556Z,1.67
2022-08-01T13:19:48.201Z,1.40
2022-08-01T13:24:50.050Z,1.27
2022-08-01T13:29:53.879Z,1.50
2022-08-01T13:35:05.772Z,1.67
2022-08-01T13:40:09.486Z,1.40
2022-08-01T13:45:14.755Z,1.70
2022-08-01T13:50:16.942Z,1.40
2022-08-01T13:55:18.795Z,1.45
2022-08-01T14:00:20.736Z,1.20
2022-08-01T14:05:22.855Z,1.00
2022-08-01T14:10:25.342Z,1.05
2022-08-01T14:15:39.358Z,1.30
2022-08-01T14:20:41.700Z,1.00
2022-08-01T14:26:01.696Z,1.15
2022-08-01T14:31:07.218Z,1.27
2022-08-01T14:36:29.209Z,1.90
2022-08-01T14:41:31.257Z,1.13
2022-08-01T14:46:33.967Z,1.20
2022-08-01T14:51:38.033Z,1.30
2022-08-01T14:56:39.892Z,1.70
2022-08-01T15:01:41.878Z,1.30
2022-08-01T15:06:44.296Z,1.25
2022-08-01T15:11:47.927Z,1.05
2022-08-01T15:16:49.863Z,1.10
2022-08-01T15:21:51.667Z,1.10
2022-08-01T15:26:53.455Z,1.20
2022-08-01T15:31:56.355Z,1.40
2022-08-01T15:36:58.440Z,1.20
2022-08-01T15:42:03.112Z,1.10
2022-08-01T15:47:06.276Z,1.20
2022-08-01T15:52:21.785Z,1.08
2022-08-01T15:57:24.403Z,1.27
2022-08-01T16:02:26.276Z,1.27
2022-08-01T16:07:28.111Z,1.33
2022-08-01T16:12:29.907Z,0.95
2022-08-01T16:17:31.728Z,1.10
2022-08-01T16:22:34.915Z,1.08
2022-08-01T16:27:38.732Z,1.00
2022-08-01T16:32:51.118Z,1.30
2022-08-01T16:37:53.779Z,1.20
2022-08-01T16:42:55.572Z,1.40
2022-08-01T16:48:00.464Z,1.33
2022-08-01T16:53:03.998Z,1.48
2022-08-01T16:58:05.938Z,1.30
2022-08-01T17:03:17.457Z,1.40
2022-08-01T17:08:30.186Z,3.90
2022-08-01T17:13:33.161Z,1.80
2022-08-01T17:18:35.359Z,1.50
2022-08-01T17:23:37.759Z,1.50
2022-08-01T17:28:39.596Z,1.17
2022-08-01T17:33:45.705Z,1.40
2022-08-01T17:43:51.049Z,1.33
2022-08-01T17:48:52.848Z,1.45
2022-08-01T17:53:56.839Z,3.00
2022-08-01T17:59:00.679Z,1.90
2022-08-01T18:04:02.799Z,1.60
2022-08-01T18:09:04.762Z,1.75
2022-08-01T18:14:11.474Z,1.75
2022-08-01T18:19:13.421Z,1.75
2022-08-01T18:24:17.305Z,1.88
2022-08-01T18:29:23.291Z,1.90
2022-08-01T18:34:41.116Z,1.58
2022-08-01T18:39:43.888Z,2.17
2022-08-01T18:44:45.740Z,2.92
2022-08-01T18:49:47.572Z,2.45
2022-08-01T18:54:51.760Z,2.60
2022-08-01T18:59:54.737Z,2.85
2022-08-01T19:04:56.710Z,2.47
2022-08-01T19:09:58.614Z,2.40
2022-08-01T19:15:04.759Z,2.42
2022-08-01T19:20:07.648Z,3.75
2022-08-01T19:25:09.668Z,2.50
2022-08-01T19:30:11.946Z,2.25
2022-08-01T19:35:15.774Z,2.60
2022-08-01T19:40:27.019Z,2.33
2022-08-01T19:45:30.032Z,2.30
2022-08-01T19:50:33.105Z,2.55
2022-08-01T19:55:39.689Z,2.28
2022-08-01T20:00:42.880Z,2.60
2022-08-01T20:05:45.127Z,2.63
2022-08-01T20:10:48.438Z,2.75
2022-08-01T20:15:52.754Z,2.40
2022-08-01T20:20:55.181Z,2.30
2022-08-01T20:26:01.740Z,2.90
2022-08-01T20:31:07.783Z,2.13
2022-08-01T20:36:12.231Z,2.40
2022-08-01T20:41:28.305Z,3.17
2022-08-01T20:46:30.333Z,2.47
2022-08-01T20:51:32.195Z,2.88
2022-08-01T20:56:50.275Z,2.47
2022-08-01T21:02:20.297Z,2.55
2022-08-01T21:07:42.454Z,2.55
2022-08-01T21:13:02.948Z,2.50
2022-08-01T21:18:11.373Z,3.05
2022-08-01T21:23:28.299Z,2.47
2022-08-01T21:28:33.215Z,2.50
2022-08-01T21:33:39.023Z,2.70
2022-08-01T21:39:03.116Z,2.40
2022-08-01T21:44:05.598Z,2.63
2022-08-01T21:49:08.791Z,2.67
2022-08-01T21:54:17.928Z,2.70
2022-08-01T21:59:59.571Z,3.00
2022-08-01T22:05:09.641Z,2.80
2022-08-01T22:10:15.359Z,3.15
2022-08-01T22:15:19.349Z,3.00
2022-08-01T22:20:23.283Z,2.60
2022-08-01T22:25:25.218Z,2.92
2022-08-01T22:30:29.233Z,2.47
2022-08-01T22:35:31.687Z,2.75
2022-08-01T22:40:34.793Z,2.78
2022-08-01T22:46:05.418Z,2.60
2022-08-01T22:51:38.251Z,2.85
2022-08-01T22:56:46.728Z,2.70
2022-08-01T23:01:50.764Z,2.58
2022-08-01T23:06:59.115Z,2.80
2022-08-01T23:12:04.843Z,2.60
2022-08-01T23:17:27.087Z,2.80
2022-08-01T23:22:32.307Z,2.70
2022-08-01T23:28:04.410Z,2.80
2022-08-01T23:33:05.798Z,2.90
2022-08-01T23:38:10.115Z,2.67
2022-08-01T23:43:16.867Z,2.60
2022-08-01T23:48:19.672Z,2.80
2022-08-01T23:53:21.497Z,2.58
2022-08-01T23:58:23.291Z,2.53
